createdAt,value
2023-01-31T00:00:03.908Z,94.65
2023-01-31T00:02:33.079Z,95.02
2023-01-31T00:05:01.200Z,95.35
2023-01-31T00:07:29.367Z,94.76
2023-01-31T00:09:58.862Z,95.70
2023-01-31T00:12:26.832Z,96.05
2023-01-31T00:14:56.053Z,96.26
2023-01-31T00:17:24.178Z,96.05
2023-01-31T00:19:52.153Z,96.05
2023-01-31T00:22:20.156Z,96.32
2023-01-31T00:24:48.123Z,96.84
2023-01-31T00:27:17.523Z,96.58
2023-01-31T00:29:46.040Z,96.99
2023-01-31T00:32:14.182Z,97.60
2023-01-31T00:34:42.155Z,97.43
2023-01-31T00:37:10.088Z,98.14
2023-01-31T00:39:38.781Z,98.53
2023-01-31T00:42:06.848Z,97.18
2023-01-31T00:44:36.556Z,97.77
2023-01-31T00:47:04.947Z,97.57
2023-01-31T00:49:35.489Z,96.92
2023-01-31T00:52:03.967Z,97.25
2023-01-31T00:54:32.064Z,97.46
2023-01-31T00:56:59.992Z,96.87
2023-01-31T00:59:27.980Z,96.43
2023-01-31T01:01:57.261Z,96.67
2023-01-31T01:04:25.486Z,96.14
2023-01-31T01:06:53.326Z,96.69
2023-01-31T01:09:22.733Z,96.31
2023-01-31T01:11:50.804Z,96.13
2023-01-31T01:14:18.799Z,95.40
2023-01-31T01:16:48.543Z,96.06
2023-01-31T01:19:20.612Z,96.14
2023-01-31T01:21:48.652Z,96.26
2023-01-31T01:24:19.620Z,95.65
2023-01-31T01:26:48.562Z,95.26
2023-01-31T01:29:16.474Z,94.70
2023-01-31T01:31:45.797Z,95.36
2023-01-31T01:34:16.046Z,94.60
2023-01-31T01:36:47.882Z,94.54
2023-01-31T01:39:18.029Z,94.69
2023-01-31T01:41:46.779Z,95.17
2023-01-31T01:44:47.307Z,95.45
2023-01-31T01:47:19.636Z,95.11
2023-01-31T01:49:50.690Z,95.17
2023-01-31T01:52:21.011Z,95.43
2023-01-31T01:54:54.267Z,95.42
2023-01-31T01:57:26.779Z,94.41
2023-01-31T01:59:59.273Z,95.02
2023-01-31T02:02:27.503Z,95.56
2023-01-31T02:04:55.744Z,95.58
2023-01-31T02:07:25.514Z,95.04
2023-01-31T02:09:58.107Z,95.15
2023-01-31T02:12:26.267Z,95.76
2023-01-31T02:14:54.427Z,95.83
2023-01-31T02:17:22.687Z,96.03
2023-01-31T02:20:04.858Z,96.75
2023-01-31T02:22:38.561Z,96.47
2023-01-31T02:25:48.142Z,96.54
2023-01-31T02:29:08.849Z,96.50
2023-01-31T02:32:04.557Z,96.54
2023-01-31T02:34:45.274Z,96.89
2023-01-31T02:37:24.682Z,96.85
2023-01-31T02:40:02.773Z,97.33
2023-01-31T02:42:38.698Z,96.71
2023-01-31T02:45:10.499Z,96.60
2023-01-31T02:47:50.617Z,96.81
2023-01-31T02:50:28.093Z,96.35
2023-01-31T02:53:01.215Z,96.27
2023-01-31T02:55:56.111Z,96.48
2023-01-31T02:58:29.037Z,96.55
2023-01-31T03:00:58.788Z,97.56
2023-01-31T03:03:32.148Z,97.81
2023-01-31T03:06:39.745Z,98.16
2023-01-31T03:09:21.270Z,98.13
2023-01-31T03:11:54.014Z,99.10
2023-01-31T03:14:29.043Z,99.64
2023-01-31T03:17:20.398Z,100.00
2023-01-31T03:19:59.318Z,100.00
2023-01-31T03:22:33.000Z,100.00
2023-01-31T03:25:03.403Z,100.00
2023-01-31T03:27:31.572Z,100.00
2023-01-31T03:30:07.009Z,100.00
2023-01-31T03:32:40.534Z,100.00
2023-01-31T03:35:09.833Z,100.00
2023-01-31T03:37:45.197Z,100.00
2023-01-31T03:40:25.160Z,100.00
2023-01-31T03:42:57.508Z,100.00
2023-01-31T03:45:31.257Z,100.00
2023-01-31T03:48:03.441Z,100.00
2023-01-31T03:50:40.497Z,100.00
2023-01-31T03:53:12.639Z,100.00
2023-01-31T03:55:46.328Z,100.00
2023-01-31T03:58:16.736Z,100.00
2023-01-31T04:00:45.466Z,100.00
2023-01-31T04:03:20.167Z,100.00
2023-01-31T04:05:49.105Z,100.00
2023-01-31T04:08:17.608Z,100.00
2023-01-31T04:10:55.997Z,100.00
2023-01-31T04:13:24.181Z,100.00
2023-01-31T04:15:52.065Z,100.00
2023-01-31T04:18:19.942Z,100.00
2023-01-31T04:20:47.770Z,100.00
2023-01-31T04:23:15.632Z,100.00
2023-01-31T04:25:43.549Z,100.00
2023-01-31T04:28:12.848Z,100.00
2023-01-31T04:30:40.730Z,100.00
2023-01-31T04:33:08.637Z,100.00
2023-01-31T04:35:36.632Z,100.00
2023-01-31T04:38:04.497Z,100.00
2023-01-31T04:40:32.377Z,100.00
2023-01-31T04:43:00.223Z,100.00
2023-01-31T04:45:29.460Z,100.00
2023-01-31T04:47:57.290Z,100.00
2023-01-31T04:50:25.138Z,100.00
2023-01-31T04:52:53.556Z,100.00
2023-01-31T04:55:21.750Z,100.00
2023-01-31T04:57:49.924Z,100.00
2023-01-31T05:00:18.988Z,100.00
2023-01-31T05:02:48.287Z,100.00
2023-01-31T05:05:16.243Z,100.00
2023-01-31T05:07:45.147Z,100.00
2023-01-31T05:10:13.109Z,100.00
2023-01-31T05:12:41.240Z,100.00
2023-01-31T05:15:11.544Z,100.00
2023-01-31T05:17:39.676Z,100.00
2023-01-31T05:20:10.516Z,100.00
2023-01-31T05:22:38.407Z,100.00
2023-01-31T05:25:07.064Z,100.00
2023-01-31T05:27:34.990Z,100.00
2023-01-31T05:30:03.100Z,100.00
2023-01-31T05:32:31.394Z,100.00
2023-01-31T05:34:59.268Z,100.00
2023-01-31T05:37:28.472Z,100.00
2023-01-31T05:39:57.027Z,100.00
2023-01-31T05:42:24.963Z,100.00
2023-01-31T05:44:52.800Z,100.00
2023-01-31T05:47:20.668Z,100.00
2023-01-31T05:49:48.470Z,100.00
2023-01-31T05:52:16.353Z,100.00
2023-01-31T05:54:45.579Z,100.00
2023-01-31T05:57:14.346Z,100.00
2023-01-31T05:59:42.357Z,100.00
2023-01-31T06:02:11.347Z,100.00
2023-01-31T06:04:39.241Z,100.00
2023-01-31T06:07:07.137Z,100.00
2023-01-31T06:09:35.050Z,100.00
2023-01-31T06:12:04.543Z,100.00
2023-01-31T06:14:32.466Z,100.00
2023-01-31T06:17:00.600Z,100.00
2023-01-31T06:19:28.505Z,100.00
2023-01-31T06:21:56.464Z,100.00
2023-01-31T06:24:24.349Z,100.00
2023-01-31T06:26:52.275Z,100.00
2023-01-31T06:29:21.595Z,100.00
2023-01-31T06:31:49.642Z,100.00
2023-01-31T06:34:17.659Z,100.00
2023-01-31T06:36:45.518Z,100.00
2023-01-31T06:39:14.005Z,100.00
2023-01-31T06:41:42.064Z,100.00
2023-01-31T06:44:10.133Z,100.00
2023-01-31T06:46:39.453Z,100.00
2023-01-31T06:49:07.354Z,100.00
2023-01-31T06:51:35.340Z,100.00
2023-01-31T06:54:03.421Z,100.00
2023-01-31T06:56:31.552Z,100.00
2023-01-31T06:58:59.467Z,100.00
2023-01-31T07:01:27.456Z,100.00
2023-01-31T07:03:56.680Z,100.00
2023-01-31T07:06:24.675Z,100.00
2023-01-31T07:08:53.391Z,100.00
2023-01-31T07:11:21.343Z,100.00
2023-01-31T07:13:50.344Z,100.00
2023-01-31T07:16:19.603Z,100.00
2023-01-31T07:18:47.607Z,100.00
2023-01-31T07:21:17.016Z,100.00
2023-01-31T07:23:45.572Z,100.00
2023-01-31T07:26:13.551Z,100.00
2023-01-31T07:28:41.532Z,100.00
2023-01-31T07:31:12.460Z,100.00
2023-01-31T07:33:41.182Z,100.00
2023-01-31T07:36:14.169Z,100.00
2023-01-31T07:38:44.308Z,100.00
2023-01-31T07:41:12.793Z,100.00
2023-01-31T07:43:40.766Z,100.00
2023-01-31T07:46:11.250Z,100.00
2023-01-31T07:48:39.907Z,100.00
2023-01-31T07:51:08.697Z,100.00
2023-01-31T07:53:41.739Z,100.00
2023-01-31T07:56:14.161Z,100.00
2023-01-31T07:58:43.484Z,100.00
2023-01-31T08:01:32.901Z,100.00
2023-01-31T08:04:18.252Z,100.00
2023-01-31T08:06:49.102Z,100.00
2023-01-31T08:09:17.077Z,100.00
2023-01-31T08:11:46.350Z,100.00
2023-01-31T08:14:14.368Z,100.00
2023-01-31T08:16:42.294Z,100.00
2023-01-31T08:19:10.215Z,100.00
2023-01-31T08:21:38.137Z,100.00
2023-01-31T08:24:06.560Z,100.00
2023-01-31T08:26:34.502Z,100.00
2023-01-31T08:29:03.823Z,100.00
2023-01-31T08:31:31.923Z,100.00
2023-01-31T08:33:59.937Z,100.00
2023-01-31T08:36:31.584Z,100.00
2023-01-31T08:39:00.292Z,100.00
2023-01-31T08:41:30.449Z,100.00
2023-01-31T08:43:59.794Z,100.00
2023-01-31T08:46:32.546Z,100.00
2023-01-31T08:49:01.415Z,100.00
2023-01-31T08:51:30.319Z,100.00
2023-01-31T08:53:58.437Z,100.00
2023-01-31T08:56:27.827Z,100.00
2023-01-31T08:58:56.303Z,100.00
2023-01-31T09:01:24.324Z,100.00
2023-01-31T09:03:56.747Z,100.00
2023-01-31T09:06:27.165Z,100.00
2023-01-31T09:08:56.961Z,100.00
2023-01-31T09:11:25.032Z,100.00
2023-01-31T09:13:53.221Z,100.00
2023-01-31T09:16:22.525Z,100.00
2023-01-31T09:18:51.669Z,100.00
2023-01-31T09:21:22.767Z,100.00
2023-01-31T09:23:57.105Z,100.00
2023-01-31T09:26:25.155Z,100.00
2023-01-31T09:28:53.215Z,100.00
2023-01-31T09:31:22.177Z,100.00
2023-01-31T09:33:50.171Z,100.00
2023-01-31T09:36:20.126Z,100.00
2023-01-31T09:38:49.753Z,100.00
2023-01-31T09:41:24.692Z,100.00
2023-01-31T09:43:57.191Z,100.00
2023-01-31T09:46:29.812Z,100.00
2023-01-31T09:49:00.747Z,100.00
2023-01-31T09:51:29.725Z,100.00
2023-01-31T09:53:59.280Z,100.00
2023-01-31T09:56:36.059Z,100.00
2023-01-31T09:59:16.035Z,100.00
2023-01-31T10:01:54.056Z,100.00
2023-01-31T10:04:37.086Z,100.00
2023-01-31T10:07:09.185Z,100.00
2023-01-31T10:09:44.441Z,100.00
2023-01-31T10:12:16.886Z,100.00
2023-01-31T10:14:51.259Z,100.00
2023-01-31T10:17:24.025Z,100.00
2023-01-31T10:19:56.368Z,100.00
2023-01-31T10:22:34.267Z,100.00
2023-01-31T10:25:18.012Z,100.00
2023-01-31T10:27:50.252Z,100.00
2023-01-31T10:30:22.424Z,100.00
2023-01-31T10:32:57.105Z,100.00
2023-01-31T10:35:31.680Z,100.00
2023-01-31T10:38:04.720Z,100.00
2023-01-31T10:40:37.963Z,100.00
2023-01-31T10:43:15.002Z,100.00
2023-01-31T10:45:43.145Z,100.00
2023-01-31T10:48:18.524Z,100.00
2023-01-31T10:51:03.013Z,100.00
2023-01-31T10:53:43.912Z,100.00
2023-01-31T10:56:22.006Z,100.00
2023-01-31T10:58:51.847Z,100.00
2023-01-31T11:01:20.185Z,100.00
2023-01-31T11:03:52.868Z,100.00
2023-01-31T11:06:21.804Z,100.00
2023-01-31T11:08:53.023Z,100.00
2023-01-31T11:11:24.481Z,100.00
2023-01-31T11:14:01.446Z,100.00
2023-01-31T11:16:32.253Z,100.00
2023-01-31T11:19:04.068Z,100.00
2023-01-31T11:21:35.489Z,100.00
2023-01-31T11:24:06.843Z,100.00
2023-01-31T11:26:49.945Z,100.00
2023-01-31T11:29:22.697Z,100.00
2023-01-31T11:31:50.900Z,100.00
2023-01-31T11:34:21.778Z,100.00
2023-01-31T11:36:49.770Z,100.00
2023-01-31T11:39:31.881Z,100.00
2023-01-31T11:42:12.805Z,100.00
2023-01-31T11:44:58.826Z,100.00
2023-01-31T11:47:39.147Z,100.00
2023-01-31T11:50:08.374Z,100.00
2023-01-31T11:52:36.747Z,100.00
2023-01-31T11:55:09.166Z,100.00
2023-01-31T11:57:40.805Z,100.00
2023-01-31T12:00:23.064Z,100.00
2023-01-31T12:02:59.337Z,100.00
2023-01-31T12:05:36.058Z,100.00
2023-01-31T12:08:04.347Z,100.00
2023-01-31T12:10:37.021Z,100.00
2023-01-31T12:13:18.949Z,100.00
2023-01-31T12:15:58.414Z,100.00
2023-01-31T12:18:44.967Z,100.00
2023-01-31T12:21:29.905Z,100.00
2023-01-31T12:24:06.822Z,100.00
2023-01-31T12:26:44.905Z,100.00
2023-01-31T12:29:41.427Z,100.00
2023-01-31T12:32:24.703Z,100.00
2023-01-31T12:35:15.426Z,100.00
2023-01-31T12:37:53.257Z,100.00
2023-01-31T12:40:35.586Z,100.00
2023-01-31T12:43:06.195Z,100.00
2023-01-31T12:46:09.695Z,100.00
2023-01-31T12:49:05.373Z,100.00
2023-01-31T12:51:46.145Z,100.00
2023-01-31T12:54:41.575Z,100.00
2023-01-31T12:57:24.345Z,100.00
2023-01-31T12:59:57.448Z,100.00
2023-01-31T13:02:38.518Z,100.00
2023-01-31T13:05:13.259Z,100.00
2023-01-31T13:07:46.752Z,100.00
2023-01-31T13:10:28.622Z,100.00
2023-01-31T13:12:59.377Z,100.00
2023-01-31T13:15:32.547Z,100.00
2023-01-31T13:18:06.700Z,100.00
2023-01-31T13:20:39.900Z,100.00
2023-01-31T13:23:14.489Z,100.00
2023-01-31T13:25:46.762Z,100.00
2023-01-31T13:28:20.070Z,100.00
2023-01-31T13:30:56.169Z,100.00
2023-01-31T13:33:37.319Z,100.00
2023-01-31T13:36:26.627Z,100.00
2023-01-31T13:38:54.919Z,100.00
2023-01-31T13:41:29.131Z,100.00
2023-01-31T13:43:58.125Z,100.00
2023-01-31T13:46:33.165Z,100.00
2023-01-31T13:49:06.757Z,100.00
2023-01-31T13:51:39.546Z,100.00
2023-01-31T13:54:14.480Z,100.00
2023-01-31T13:56:43.288Z,100.00
2023-01-31T13:59:12.471Z,100.00
2023-01-31T14:01:47.450Z,100.00
2023-01-31T14:04:36.721Z,100.00
2023-01-31T14:07:22.599Z,100.00
2023-01-31T14:10:29.455Z,100.00
2023-01-31T14:13:27.435Z,100.00
2023-01-31T14:15:57.268Z,100.00
2023-01-31T14:18:42.221Z,100.00
2023-01-31T14:21:25.094Z,100.00
2023-01-31T14:23:54.359Z,100.00
2023-01-31T14:26:52.475Z,100.00
2023-01-31T14:29:22.939Z,100.00
2023-01-31T14:31:53.087Z,100.00
2023-01-31T14:34:24.714Z,100.00
2023-01-31T14:37:11.234Z,100.00
2023-01-31T14:40:07.843Z,100.00
2023-01-31T14:43:06.481Z,100.00
2023-01-31T14:46:10.425Z,100.00
2023-01-31T14:49:07.904Z,100.00
2023-01-31T14:51:49.648Z,100.00
2023-01-31T14:54:44.381Z,100.00
2023-01-31T14:57:17.744Z,100.00
2023-01-31T14:59:57.098Z,100.00
2023-01-31T15:02:55.240Z,100.00
2023-01-31T15:05:39.741Z,100.00
2023-01-31T15:08:38.813Z,100.00
2023-01-31T15:11:15.129Z,100.00
2023-01-31T15:13:48.281Z,100.00
2023-01-31T15:16:25.096Z,100.00
2023-01-31T15:18:59.884Z,100.00
2023-01-31T15:21:31.101Z,100.00
2023-01-31T15:24:01.086Z,100.00
2023-01-31T15:26:34.177Z,100.00
2023-01-31T15:29:05.691Z,100.00
2023-01-31T15:31:40.971Z,100.00
2023-01-31T15:34:17.540Z,100.00
2023-01-31T15:36:49.482Z,100.00
2023-01-31T15:39:24.319Z,100.00
2023-01-31T15:41:52.288Z,100.00
2023-01-31T15:44:23.335Z,100.00
2023-01-31T15:46:52.936Z,100.00
2023-01-31T15:49:38.656Z,100.00
2023-01-31T15:52:16.008Z,100.00
2023-01-31T15:54:55.736Z,100.00
2023-01-31T15:57:26.683Z,100.00
2023-01-31T15:59:57.317Z,100.00
2023-01-31T16:02:29.480Z,100.00
2023-01-31T16:04:58.441Z,100.00
2023-01-31T16:07:31.217Z,100.00
2023-01-31T16:10:01.860Z,100.00
2023-01-31T16:12:31.671Z,100.00
2023-01-31T16:15:07.100Z,100.00
2023-01-31T16:17:35.906Z,100.00
2023-01-31T16:20:05.653Z,100.00
2023-01-31T16:22:33.719Z,100.00
2023-01-31T16:25:03.310Z,100.00
2023-01-31T16:27:35.586Z,100.00
2023-01-31T16:30:06.468Z,100.00
2023-01-31T16:32:38.155Z,100.00
2023-01-31T16:35:08.489Z,100.00
2023-01-31T16:37:38.016Z,100.00
2023-01-31T16:40:11.698Z,100.00
2023-01-31T16:42:39.676Z,100.00
2023-01-31T16:45:29.341Z,100.00
2023-01-31T16:48:16.835Z,100.00
2023-01-31T16:50:44.868Z,100.00
2023-01-31T16:53:28.183Z,100.00
2023-01-31T16:56:19.628Z,100.00
2023-01-31T16:58:50.910Z,100.00
2023-01-31T17:01:23.152Z,100.00
2023-01-31T17:04:16.568Z,100.00
2023-01-31T17:06:49.720Z,100.00
2023-01-31T17:09:21.432Z,100.00
2023-01-31T17:11:49.495Z,100.00
2023-01-31T17:14:17.489Z,100.00
2023-01-31T17:16:47.953Z,100.00
2023-01-31T17:19:16.150Z,100.00
2023-01-31T17:21:44.695Z,100.00
2023-01-31T17:24:15.398Z,100.00
2023-01-31T17:26:43.841Z,100.00
2023-01-31T17:29:11.938Z,100.00
2023-01-31T17:31:41.935Z,100.00
2023-01-31T17:34:14.623Z,100.00
2023-01-31T17:36:43.418Z,100.00
2023-01-31T17:39:11.457Z,100.00
2023-01-31T17:41:41.142Z,100.00
2023-01-31T17:44:13.886Z,100.00
2023-01-31T17:46:42.129Z,100.00
2023-01-31T17:49:10.056Z,100.00
2023-01-31T17:51:39.609Z,100.00
2023-01-31T17:54:08.062Z,100.00
2023-01-31T17:56:36.050Z,100.00
2023-01-31T17:59:04.887Z,100.00
2023-01-31T18:01:33.315Z,100.00
2023-01-31T18:04:03.307Z,100.00
2023-01-31T18:06:31.352Z,100.00
2023-01-31T18:09:04.427Z,100.00
2023-01-31T18:11:32.433Z,100.00
2023-01-31T18:14:03.315Z,100.00
2023-01-31T18:16:32.208Z,100.00
2023-01-31T18:19:00.291Z,100.00
2023-01-31T18:21:28.352Z,100.00
2023-01-31T18:23:57.695Z,100.00
2023-01-31T18:26:27.139Z,100.00
2023-01-31T18:28:57.395Z,100.00
2023-01-31T18:31:26.279Z,100.00
2023-01-31T18:33:54.337Z,100.00
2023-01-31T18:36:22.840Z,100.00
2023-01-31T18:38:51.869Z,100.00
2023-01-31T18:41:21.656Z,100.00
2023-01-31T18:43:51.062Z,100.00
2023-01-31T18:46:19.409Z,100.00
2023-01-31T18:48:47.415Z,100.00
2023-01-31T18:51:16.527Z,100.00
2023-01-31T18:53:46.239Z,100.00
2023-01-31T18:56:17.041Z,100.00
2023-01-31T18:58:46.014Z,100.00
2023-01-31T19:01:17.317Z,100.00
2023-01-31T19:03:47.172Z,100.00
2023-01-31T19:06:17.039Z,100.00
2023-01-31T19:08:49.143Z,100.00
2023-01-31T19:11:18.184Z,100.00
2023-01-31T19:13:46.582Z,100.00
2023-01-31T19:16:18.402Z,100.00
2023-01-31T19:18:46.993Z,100.00
2023-01-31T19:21:16.339Z,100.00
2023-01-31T19:23:44.661Z,100.00
2023-01-31T19:26:14.092Z,100.00
2023-01-31T19:28:42.648Z,100.00
2023-01-31T19:31:13.468Z,100.00
2023-01-31T19:33:43.228Z,100.00
2023-01-31T19:36:12.395Z,100.00
2023-01-31T19:38:40.490Z,100.00
2023-01-31T19:41:09.525Z,100.00
2023-01-31T19:43:38.057Z,100.00
2023-01-31T19:46:11.063Z,100.00
2023-01-31T19:48:39.416Z,100.00
2023-01-31T19:51:11.101Z,100.00
2023-01-31T19:53:39.856Z,100.00
2023-01-31T19:56:08.832Z,100.00
2023-01-31T19:58:37.105Z,100.00
2023-01-31T20:01:11.373Z,100.00
2023-01-31T20:03:39.675Z,100.00
2023-01-31T20:06:14.121Z,100.00
2023-01-31T20:08:42.006Z,100.00
2023-01-31T20:11:11.006Z,100.00
2023-01-31T20:13:39.043Z,100.00
2023-01-31T20:16:08.994Z,100.00
2023-01-31T20:18:41.982Z,100.00
2023-01-31T20:21:13.986Z,100.00
2023-01-31T20:23:44.012Z,100.00
2023-01-31T20:26:14.117Z,100.00
2023-01-31T20:28:43.395Z,100.00
2023-01-31T20:31:16.104Z,100.00
2023-01-31T20:33:44.343Z,100.00
2023-01-31T20:36:12.579Z,100.00
2023-01-31T20:38:41.235Z,100.00
2023-01-31T20:41:10.573Z,100.00
2023-01-31T20:43:38.980Z,100.00
2023-01-31T20:46:08.830Z,100.00
2023-01-31T20:48:37.177Z,100.00
2023-01-31T20:51:05.930Z,100.00
2023-01-31T20:53:34.446Z,100.00
2023-01-31T20:56:04.248Z,100.00
2023-01-31T20:58:35.579Z,100.00
2023-01-31T21:01:06.032Z,100.00
2023-01-31T21:03:35.097Z,100.00
2023-01-31T21:06:03.936Z,100.00
2023-01-31T21:08:35.264Z,100.00
2023-01-31T21:11:06.546Z,100.00
2023-01-31T21:13:36.173Z,100.00
2023-01-31T21:16:06.578Z,100.00
2023-01-31T21:18:36.291Z,100.00
2023-01-31T21:21:07.259Z,100.00
2023-01-31T21:23:38.003Z,100.00
2023-01-31T21:26:07.570Z,100.00
2023-01-31T21:28:39.650Z,100.00
2023-01-31T21:31:12.397Z,100.00
2023-01-31T21:33:40.647Z,100.00
2023-01-31T21:36:11.817Z,100.00
2023-01-31T21:38:40.487Z,100.00
2023-01-31T21:41:27.484Z,100.00
2023-01-31T21:43:57.495Z,100.00
2023-01-31T21:46:26.747Z,100.00
2023-01-31T21:48:55.382Z,100.00
2023-01-31T21:51:26.032Z,100.00
2023-01-31T21:53:54.132Z,100.00
2023-01-31T21:56:23.792Z,100.00
2023-01-31T21:58:53.657Z,100.00
2023-01-31T22:01:25.271Z,100.00
2023-01-31T22:03:54.567Z,100.00
2023-01-31T22:06:26.927Z,100.00
2023-01-31T22:08:57.194Z,100.00
2023-01-31T22:11:26.205Z,100.00
2023-01-31T22:13:56.171Z,100.00
2023-01-31T22:16:25.626Z,100.00
2023-01-31T22:18:54.284Z,100.00
2023-01-31T22:21:25.120Z,100.00
2023-01-31T22:23:54.631Z,100.00
2023-01-31T22:26:24.269Z,100.00
2023-01-31T22:28:52.976Z,100.00
2023-01-31T22:31:21.090Z,100.00
2023-01-31T22:33:50.753Z,100.00
2023-01-31T22:36:19.868Z,100.00
2023-01-31T22:38:47.802Z,100.00
2023-01-31T22:41:20.015Z,100.00
2023-01-31T22:43:50.534Z,100.00
2023-01-31T22:46:20.345Z,100.00
2023-01-31T22:48:49.855Z,100.00
2023-01-31T22:51:20.222Z,100.00
2023-01-31T22:53:48.569Z,100.00
2023-01-31T22:56:18.130Z,100.00
2023-01-31T22:58:46.051Z,100.00
2023-01-31T23:01:16.292Z,100.00
2023-01-31T23:03:44.699Z,100.00
2023-01-31T23:06:14.912Z,100.00
2023-01-31T23:08:43.633Z,100.00
2023-01-31T23:11:13.285Z,100.00
2023-01-31T23:13:41.612Z,100.00
2023-01-31T23:16:10.579Z,100.00
2023-01-31T23:18:38.439Z,100.00
2023-01-31T23:21:07.386Z,100.00
2023-01-31T23:23:36.715Z,100.00
2023-01-31T23:26:05.117Z,100.00
2023-01-31T23:28:33.255Z,100.00
2023-01-31T23:31:01.706Z,100.00
2023-01-31T23:33:29.602Z,100.00
2023-01-31T23:35:57.656Z,100.00
2023-01-31T23:38:25.587Z,100.00
2023-01-31T23:40:55.546Z,100.00
2023-01-31T23:43:23.913Z,100.00
2023-01-31T23:45:52.132Z,100.00
2023-01-31T23:48:20.169Z,100.00
2023-01-31T23:50:48.110Z,100.00
2023-01-31T23:53:16.000Z,100.00
2023-01-31T23:55:43.910Z,100.00
2023-01-31T23:58:13.138Z,100.00
